Overview Statistics Trail Chart Weather Telemetry Raw packets
 

This is the latest recevied weather packets stored in our database for station/object DN9EM-3. If no packets are shown the sender has not sent any weather packets the latest 10 day(s).

<< 7 8 9 10 11 12 13 >>
Time Temp. Humidity Pressure Rain* Wind** Luminosity Snow
1788444024 20.56° C 85% 1013.4 hPa 0 mm - - -
1788443421 21.67° C 83% 1013.4 hPa 0 mm - - -
1788442819 21.11° C 82% 1013.4 hPa 0 mm - - -
1788442216 20.56° C 85% 1013.3 hPa 0 mm - - -
1788441674 20° C 86% 1013.4 hPa 0 mm - - -
1788441071 20° C 86% 1013.4 hPa 0 mm - - -
1788440469 20° C 85% 1013.5 hPa 0 mm - - -
1788439866 20° C 84% 1013.3 hPa 0 mm - - -
1788439264 19.44° C 86% 1013.3 hPa 0 mm - - -
1788438661 18.89° C 87% 1013.4 hPa 0 mm - - -
1788438059 18.89° C 87% 1013.4 hPa 0 mm - - -
1788437456 18.89° C 88% 1013.4 hPa 0 mm - - -
1788436853 18.89° C 88% 1013.3 hPa 0 mm - - -
1788436251 18.89° C 88% 1013.4 hPa 0 mm - - -
1788435648 18.89° C 87% 1013.6 hPa 0 mm - - -
1788435046 18.89° C 86% 1013.7 hPa 0 mm - - -
1788434443 18.89° C 85% 1013.6 hPa 0 mm - - -
1788433840 19.44° C 85% 1013.6 hPa 0 mm - - -
1788433254 19.44° C 82% 1013.6 hPa 0 mm - - -
1788432636 18.89° C 83% 1013.5 hPa 0 mm - - -
1788432033 18.89° C 83% 1013.7 hPa 0 mm - - -
1788431430 18.89° C 83% 1013.9 hPa 0 mm - - -
1788430828 18.89° C 83% 1013.9 hPa 0 mm - - -
1788430225 18.89° C 83% 1014 hPa 0 mm - - -
1788429622 18.89° C 82% 1014 hPa 0 mm - - -

* Rain latest hour (hover to see other rain measurements)
** Current wind speed in m/s (hover to see current wind gust speed)